x

Western Prince William Sound (46081) Weather Station

1:50am - Mon 8th Feb 2016 All times are UTC.

  • Average Period 2s
  • Wind
    4mph, 7mph gusts
  • Sea Temp 40°f
  • Air Temp 37°f
  • Sea Pressure 1007mb

More Historic Weather Station data

Upgrade to MSW Pro to gain access to the past 30 days of data for over 8000 Wavebouys and Weather Stations around the globe.

Join Pro

Comparision Forecast

View Surf forecast
   
Mon 02/08 1:50am  -   -  2s 4 7 mph 1007mb 40f 37f
12:50am  -   -  2s 4 9 mph 1007mb 40f 36f
Sun 02/07 11:50pm  -   -  3s 7 9 mph 1007mb 40f 36f
10:50pm 0.3ft  -  3s 7 9 mph 1007.5mb 40f 36f
9:50pm  -   -  3s 2
mph
1007.9mb 40f 35f
8:50pm 0.3ft  -  3s 7 9 mph 1007.8mb 40f 35f
7:50pm 0.3ft  -  2s 4 7 mph 1007.8mb 40f 35f
6:50pm 0.3ft  -  2s 4 7 mph 1008mb 40f 36f
5:50pm 0.3ft  -  2s 9
mph
1008.8mb 40f 36f
4:50pm 0.7ft  -  3s 7 9 mph 1010mb 40f 36f
3:50pm 1ft 3s 3s 11 13 mph 1011.4mb 40f 37f
2:50pm 1.3ft 3s 3s 13 16 mph 1013mb 40f 37f
1:50pm 1.6ft 3s 3s 16 20 mph 1014.4mb 40f 37f
12:50pm 2ft 3s 3s 18 22 mph 1015.2mb 40f 37f
11:50am 2ft 3s 3s 18 20 mph 1015.9mb 40f 38f
10:50am 2ft 3s 3s 18 20 mph 1016.4mb 40f 37f
9:50am 1.6ft 3s 3s 16 20 mph 1017.1mb 40f 35f
8:50am 1.6ft 3s 3s 18 22 mph 1016.9mb 40f 34f
7:50am 1.3ft 3s 3s 16 18 mph 1016.2mb 40f 35f
6:50am 1.6ft 3s 3s 11 13 mph 1016.2mb 40f 36f
5:50am 2ft 3s 3s 13 18 mph 1015.7mb 40f 37f
4:50am 2ft 3s 3s 11 16 mph 1015.4mb 40f 37f
3:50am 1.3ft 3s 3s 13 18 mph 1014.7mb 40f 35f
2:50am 1.3ft 3s 3s 16 18 mph 1013.9mb 40f 35f
1:50am 2ft 3s 3s 16 20 mph 1013mb 40f 35f
12:50am 2.5ft 3s 3s 18 22 mph 1012.1mb 40f 35f
Sat 02/06 11:50pm  -   -   -  20 25 mph 1011.4mb 40f 34f
10:50pm 2.5ft 3s 3s 22 27 mph 1010.6mb 40f 34f
9:50pm 2.5ft 3s 3s 20 22 mph 1010.1mb 40f 34f
8:50pm  -   -   -  22 27 mph 1009.3mb 40f 35f
7:50pm 2ft 3s 3s 20 22 mph 1008.4mb 40f 37f
6:50pm 2ft 3s 3s 13 18 mph 1007.6mb 40f 39f
5:50pm 1.3ft 3s 3s 13 20 mph 1007.1mb 39f 38f
4:50pm 1.6ft 3s 3s 13 16 mph 1006.3mb 40f 38f
3:50pm 2ft 3s 3s 13 18 mph 1005.8mb 40f 38f
2:50pm 1.3ft 3s 3s 16 18 mph 1005mb 40f 37f
1:50pm 1.6ft 3s 3s 16 18 mph 1004.8mb 39f 35f
12:50pm 1ft 3s 3s 9 13 mph 1004.2mb 40f 36f
11:50am 0.7ft  -  3s 13 16 mph 1003.2mb 40f 37f
10:50am 0.7ft  -  3s 11 13 mph 1002.4mb 40f 36f
9:50am 0.7ft  -  3s 9
mph
1001.4mb 40f 35f
8:50am 0.7ft  -  3s 9 11 mph 1000mb 41f 35f
7:50am 1ft 3s 3s 11 13 mph 999mb 41f 35f
6:50am 1ft 3s 3s 11 13 mph 998mb 41f 35f
5:50am 1.3ft 3s 3s 16 20 mph 997mb 41f 36f
4:50am 1.3ft 3s 3s 13 16 mph 996.5mb 41f 37f
3:50am 1.6ft 3s 3s 16 18 mph 995.6mb 41f 37f
2:50am 1.6ft 3s 3s 16 18 mph 995mb 41f 37f
1:50am 1.3ft 3s 3s 16 18 mph 994.7mb 41f 37f
12:50am 1ft 3s 3s 13 16 mph 994.2mb 41f 36f
Fri 02/05 11:50pm 1.3ft 3s 3s 11 18 mph 994mb 41f 37f
10:50pm 1.3ft 3s 3s 13 18 mph 993.5mb 41f 38f
9:50pm 1.6ft 3s 3s 20 25 mph 992.7mb 41f 38f
8:50pm 1.3ft 2s 3s 22 27 mph 992mb 41f 39f
7:50pm 1ft 2s 3s 18 22 mph 991.4mb 41f 38f
6:50pm 1ft 2s 3s 22 27 mph 990.3mb 41f 38f
5:50pm 1.6ft 2s 3s 25 29 mph 989.2mb 41f 38f
4:50pm 1.3ft 2s 3s 16 22 mph 988.7mb 41f 39f
3:50pm 1.6ft 2s 3s 20 25 mph 988mb 41f 39f
2:50pm 1.3ft 3s 3s 18 22 mph 987.8mb 41f 39f
1:50pm 1.3ft 3s 3s 18 27 mph 987.3mb 40f 39f
12:50pm 1.6ft 3s 3s 16 20 mph 987mb 41f 39f
11:50am 1.6ft 3s 3s 13 18 mph 986.7mb 41f 39f
10:50am 1.6ft 4s 3s 11 16 mph 986.5mb 41f 39f
9:50am 2.5ft 3s 3s 18 22 mph 985.8mb 42f 39f
8:50am 2.5ft 3s 3s 11 16 mph 985.3mb 42f 39f
7:50am 2.5ft 3s 3s 22 29 mph 984.4mb 43f 40f
6:50am 3ft 3s 3s 29 36 mph 983.7mb 43f 38f
5:50am 3ft 3s 3s 29 40 mph 982.6mb 42f 40f
4:50am 3.5ft 3s 3s 38 47 mph 981.3mb 42f 40f
3:50am 4ft 4s 3s 31 40 mph 981.2mb 42f 40f
2:50am 4ft 4s 4s 31 43 mph 980.3mb 42f 41f
1:50am 4.5ft 4s 4s 34 45 mph 980mb 41f 40f
12:50am 4.5ft 4s 3s 38 45 mph 979.1mb 40f 40f
Thu 02/04 11:50pm 3ft 3s 3s 34 45 mph 979.5mb 40f 42f
10:50pm 1.6ft 3s 3s 20 27 mph 979.8mb 40f 40f
9:50pm 1.6ft 3s 3s 16 20 mph 979.9mb 40f 42f
8:50pm 0.3ft  -  3s 18 27 mph 980.3mb 40f 43f
7:50pm 0.7ft  -  3s  -  4 mph 980.6mb 40f 41f
6:50pm 0.7ft  -  3s 16 18 mph 981mb 40f 41f
5:50pm 1.3ft 3s 3s 16 20 mph 982.8mb 40f 42f
4:50pm 1.3ft 3s 3s 16 18 mph 985mb 40f 41f
3:50pm 1.6ft 3s 3s 13 20 mph 986mb 40f 41f
2:50pm 1.6ft 4s 3s 16 20 mph 986.7mb 40f 40f
1:50pm 1.6ft 3s 3s 11 16 mph 987.6mb 40f 40f
12:50pm 2ft 3s 3s 18 25 mph 987.8mb 40f 40f
11:50am 2.5ft 3s 3s 20 27 mph 988.2mb 40f 41f
10:50am 2.5ft 3s 3s 18 25 mph 988.4mb 40f 41f
9:50am 2ft 4s 3s 20 25 mph 989.2mb 40f 39f
8:50am 2.5ft 4s 3s 13 20 mph 989mb 40f 39f
7:50am 2.5ft 4s 3s 22 29 mph 988.6mb 40f 40f
6:50am 2.5ft 4s 3s 16 22 mph 988.6mb 39f 41f
5:50am 2.5ft 4s 3s 13 20 mph 988.9mb 39f 41f
4:50am 2.5ft 3s 3s 13 20 mph 988.6mb 40f 40f
3:50am 2ft 3s 3s 16 20 mph 988.8mb 40f 40f
2:50am 2.5ft 3s 3s 18 20 mph 989mb 39f 40f